Time;durP1;ratioP1;P1;durP2;ratioP2;P2;SDS_P1;SDS_P2;PMS_P1;PMS_P2;Temp;Humidity;BMP_temperature;BMP_pressure;BME280_temperature;BME280_humidity;BME280_pressure;Samples;Min_cycle;Max_cycle;Signal;HPM_P1;HPM_P2
2023/09/07 00:01:36;;;;;;;9.60;3.77;;;13.30;99.90;;;;;;4192036;28;20041;-64
2023/09/07 00:03:40;;;;;;;7.67;3.53;;;13.20;99.90;;;;;;4175738;28;20102;-65
2023/09/07 00:05:41;;;;;;;6.53;3.50;;;13.10;99.90;;;;;;4193389;28;20090;-65
2023/09/07 00:07:43;;;;;;;6.40;3.70;;;13.00;99.90;;;;;;4193372;28;20041;-65
2023/09/07 00:09:45;;;;;;;5.13;3.50;;;12.80;99.90;;;;;;4192762;28;20530;-65
2023/09/07 00:11:46;;;;;;;6.40;3.43;;;12.60;99.90;;;;;;4192934;28;20066;-65
2023/09/07 00:13:47;;;;;;;5.43;3.77;;;12.60;99.90;;;;;;4193510;28;20037;-65
2023/09/07 00:15:48;;;;;;;8.67;3.50;;;12.60;99.90;;;;;;4192090;28;20029;-65
2023/09/07 00:17:51;;;;;;;6.20;3.83;;;12.50;99.90;;;;;;4194347;28;20025;-65
2023/09/07 00:19:52;;;;;;;7.33;4.10;;;12.50;99.90;;;;;;4193188;28;20393;-64
2023/09/07 00:21:53;;;;;;;3.63;3.17;;;12.40;99.90;;;;;;4194589;28;20028;-63
2023/09/07 00:23:55;;;;;;;7.83;3.83;;;12.30;99.90;;;;;;4193214;28;20040;-64
2023/09/07 00:25:56;;;;;;;9.63;4.43;;;12.20;99.90;;;;;;4193396;28;20516;-63
2023/09/07 00:27:57;;;;;;;7.13;4.00;;;12.20;99.90;;;;;;4192135;28;20053;-64
2023/09/07 00:29:58;;;;;;;14.33;4.20;;;12.20;99.90;;;;;;4194555;28;20036;-64
2023/09/07 00:31:59;;;;;;;12.67;3.90;;;12.20;99.90;;;;;;4192596;28;20029;-63
2023/09/07 00:34:00;;;;;;;11.53;4.30;;;12.20;99.90;;;;;;4193676;28;20044;-65
2023/09/07 00:36:03;;;;;;;8.20;3.90;;;12.20;99.90;;;;;;4192911;28;20032;-63
2023/09/07 00:38:04;;;;;;;12.27;4.57;;;12.20;99.90;;;;;;4177769;28;20048;-64
2023/09/07 00:40:08;;;;;;;8.60;3.83;;;12.20;99.90;;;;;;4192683;28;20414;-64
2023/09/07 00:42:09;;;;;;;9.30;4.00;;;12.10;99.90;;;;;;4192590;28;20036;-64
2023/09/07 00:44:11;;;;;;;6.57;3.57;;;12.10;99.90;;;;;;4193195;28;20162;-64
2023/09/07 00:46:12;;;;;;;5.27;3.70;;;12.00;99.90;;;;;;4192584;28;20025;-64
2023/09/07 00:48:14;;;;;;;10.27;4.97;;;12.10;99.90;;;;;;4193351;28;20087;-62
2023/09/07 00:50:19;;;;;;;7.90;3.70;;;12.00;99.90;;;;;;4192658;28;20037;-63
2023/09/07 00:52:21;;;;;;;8.57;4.27;;;12.00;99.90;;;;;;4194657;28;20036;-64
2023/09/07 00:54:22;;;;;;;7.80;4.10;;;12.00;99.90;;;;;;4192975;28;20058;-63
2023/09/07 00:56:25;;;;;;;6.10;3.57;;;12.00;99.90;;;;;;4193973;28;20040;-65
2023/09/07 00:58:27;;;;;;;9.13;4.13;;;12.10;99.90;;;;;;4192221;28;20181;-64
2023/09/07 01:00:28;;;;;;;5.27;3.47;;;12.20;99.90;;;;;;4192828;28;20105;-62
2023/09/07 01:02:31;;;;;;;9.00;4.53;;;12.20;99.90;;;;;;4193153;28;20079;-65
2023/09/07 01:04:33;;;;;;;9.53;4.20;;;12.30;99.90;;;;;;4196354;28;20170;-64
2023/09/07 01:06:39;;;;;;;5.20;3.60;;;12.30;99.90;;;;;;4195780;28;20142;-65
2023/09/07 01:08:56;;;;;;;6.93;3.90;;;12.20;99.90;;;;;;4196560;28;20101;-64
2023/09/07 01:10:57;;;;;;;20.03;4.13;;;12.20;99.90;;;;;;4194578;28;20098;-64
2023/09/07 01:12:58;;;;;;;10.30;4.53;;;12.20;99.90;;;;;;4178761;28;20055;-65
2023/09/07 01:15:01;;;;;;;7.30;4.60;;;12.20;99.90;;;;;;4194454;28;20049;-64
2023/09/07 01:17:04;;;;;;;7.63;4.40;;;12.10;99.90;;;;;;4195266;28;20040;-64
2023/09/07 01:19:06;;;;;;;7.53;4.40;;;12.00;99.90;;;;;;4192795;28;20029;-63
2023/09/07 01:21:10;;;;;;;5.43;4.17;;;12.00;99.90;;;;;;4195663;28;20050;-64
2023/09/07 01:23:13;;;;;;;9.60;4.63;;;11.90;99.90;;;;;;4196285;28;20021;-64
2023/09/07 01:25:14;;;;;;;10.13;4.43;;;11.90;99.90;;;;;;4194686;28;20067;-65
2023/09/07 01:27:15;;;;;;;6.63;4.30;;;11.80;99.90;;;;;;4195061;28;20024;-64
2023/09/07 01:29:17;;;;;;;9.80;4.70;;;11.80;99.90;;;;;;4194625;28;20086;-65
2023/09/07 01:31:18;;;;;;;6.57;4.90;;;11.80;99.90;;;;;;4196167;28;20044;-64
2023/09/07 01:33:19;;;;;;;5.37;4.10;;;11.80;99.90;;;;;;4195240;28;20029;-64
2023/09/07 01:35:21;;;;;;;7.77;4.27;;;11.80;99.90;;;;;;4196617;28;20078;-64
2023/09/07 01:37:22;;;;;;;9.03;5.20;;;11.80;99.90;;;;;;4193749;28;20040;-64
2023/09/07 01:39:24;;;;;;;9.80;4.70;;;11.70;99.90;;;;;;4195090;28;20070;-64
2023/09/07 01:41:25;;;;;;;8.10;5.00;;;11.70;99.90;;;;;;4194413;28;20053;-62
2023/09/07 01:43:26;;;;;;;9.90;5.10;;;11.70;99.90;;;;;;4195979;28;20079;-65
2023/09/07 01:45:27;;;;;;;10.53;4.60;;;11.70;99.90;;;;;;4194677;28;20094;-65
2023/09/07 01:47:28;;;;;;;7.13;3.97;;;11.60;99.90;;;;;;4196210;28;20028;-65
2023/09/07 01:49:30;;;;;;;8.53;4.33;;;11.60;99.90;;;;;;4194208;28;20029;-63
2023/09/07 01:51:31;;;;;;;6.60;3.77;;;11.70;99.90;;;;;;4195882;28;20056;-64
2023/09/07 01:53:32;;;;;;;16.03;4.77;;;11.80;99.90;;;;;;4195668;28;20058;-64
2023/09/07 01:55:33;;;;;;;10.07;4.33;;;11.80;99.90;;;;;;4195360;28;20078;-64
2023/09/07 01:57:34;;;;;;;6.93;4.40;;;11.80;99.90;;;;;;4195651;28;20466;-65
2023/09/07 01:59:35;;;;;;;7.10;4.47;;;11.70;99.90;;;;;;4195153;28;20411;-64
2023/09/07 02:01:38;;;;;;;5.00;3.83;;;11.70;99.90;;;;;;4195164;28;20028;-65
2023/09/07 02:03:39;;;;;;;8.63;4.57;;;11.60;99.90;;;;;;4193810;28;20093;-62
2023/09/07 02:05:40;;;;;;;7.47;3.60;;;11.60;99.90;;;;;;4195245;28;20086;-60
2023/09/07 02:07:42;;;;;;;7.97;4.03;;;11.60;99.90;;;;;;4193992;28;20097;-63
2023/09/07 02:09:43;;;;;;;10.90;4.83;;;11.70;99.90;;;;;;4195376;28;20036;-64
2023/09/07 02:11:44;;;;;;;7.37;4.53;;;11.70;99.90;;;;;;4193074;28;20044;-65
2023/09/07 02:13:47;;;;;;;8.03;4.10;;;11.80;99.90;;;;;;4194025;28;20048;-63
2023/09/07 02:15:48;;;;;;;8.10;4.30;;;11.80;99.90;;;;;;4193429;28;20085;-64
2023/09/07 02:17:49;;;;;;;8.13;3.70;;;11.70;99.90;;;;;;4194757;28;20040;-65
2023/09/07 02:19:50;;;;;;;5.17;3.37;;;11.60;99.90;;;;;;4193846;28;20028;-63
2023/09/07 02:21:52;;;;;;;7.83;3.83;;;11.40;99.90;;;;;;4194734;28;20025;-65
2023/09/07 02:23:53;;;;;;;4.27;3.43;;;11.30;99.90;;;;;;4192580;28;20048;-63
2023/09/07 02:25:54;;;;;;;6.00;3.77;;;11.20;99.90;;;;;;4194159;28;20064;-65
2023/09/07 02:27:55;;;;;;;5.80;4.00;;;11.10;99.90;;;;;;4195191;28;20044;-64
2023/09/07 02:29:56;;;;;;;8.50;3.73;;;11.00;99.90;;;;;;4194114;28;20569;-63
2023/09/07 02:31:58;;;;;;;5.27;3.80;;;10.90;99.90;;;;;;4195800;28;20037;-64
2023/09/07 02:33:59;;;;;;;6.43;3.60;;;10.90;99.90;;;;;;4194306;28;20530;-63
2023/09/07 02:36:00;;;;;;;7.13;4.00;;;10.90;99.90;;;;;;4195508;28;20020;-64
2023/09/07 02:38:01;;;;;;;5.23;3.30;;;10.90;99.90;;;;;;4193458;28;20399;-65
2023/09/07 02:40:07;;;;;;;8.30;3.90;;;11.00;99.90;;;;;;4195319;28;20020;-64
2023/09/07 02:42:08;;;;;;;5.03;3.30;;;11.00;99.90;;;;;;4193412;28;20109;-64
2023/09/07 02:44:09;;;;;;;7.20;3.63;;;11.10;99.90;;;;;;4195021;28;20039;-65
2023/09/07 02:46:10;;;;;;;7.63;3.90;;;11.10;99.90;;;;;;4180498;28;20416;-64
2023/09/07 02:48:11;;;;;;;6.10;3.97;;;11.10;99.90;;;;;;4191861;28;20090;-64
2023/09/07 02:50:14;;;;;;;6.07;3.30;;;11.20;99.90;;;;;;4193725;28;20040;-63
2023/09/07 02:52:15;;;;;;;4.77;3.27;;;11.20;99.90;;;;;;4194663;28;20090;-65
2023/09/07 02:54:16;;;;;;;7.50;4.80;;;11.20;99.90;;;;;;4175601;28;20574;-65
2023/09/07 02:56:17;;;;;;;6.40;3.33;;;11.30;99.90;;;;;;4192569;28;20106;-64
2023/09/07 02:58:19;;;;;;;7.47;3.70;;;11.30;99.90;;;;;;4193713;28;20040;-64
2023/09/07 03:00:20;;;;;;;5.43;3.20;;;11.40;99.90;;;;;;4193223;28;20455;-64
2023/09/07 03:02:21;;;;;;;5.43;3.43;;;11.40;99.90;;;;;;4194676;28;20036;-65
2023/09/07 03:04:23;;;;;;;4.23;2.90;;;11.40;99.90;;;;;;4194018;28;20082;-64
2023/09/07 03:06:24;;;;;;;4.87;3.10;;;11.40;99.90;;;;;;4194454;28;20041;-64
2023/09/07 03:08:25;;;;;;;10.77;4.20;;;11.50;99.90;;;;;;4192398;28;20440;-64
2023/09/07 03:10:27;;;;;;;14.23;4.67;;;11.50;99.90;;;;;;4193399;28;20109;-63
2023/09/07 03:12:28;;;;;;;9.90;4.00;;;11.30;99.90;;;;;;4192527;28;20090;-61
2023/09/07 03:14:29;;;;;;;8.50;4.07;;;11.20;99.90;;;;;;4193946;28;20488;-63
2023/09/07 03:16:31;;;;;;;4.77;3.40;;;11.00;99.90;;;;;;4192979;28;20118;-62
2023/09/07 03:18:32;;;;;;;7.57;4.47;;;10.80;99.90;;;;;;4194678;28;20029;-63
2023/09/07 03:20:34;;;;;;;8.43;4.40;;;10.80;99.90;;;;;;4194024;28;20074;-63
2023/09/07 03:22:35;;;;;;;11.80;5.20;;;10.70;99.90;;;;;;4193376;28;20110;-63
2023/09/07 03:24:36;;;;;;;11.43;4.87;;;10.70;99.90;;;;;;4193886;28;20074;-64
2023/09/07 03:26:38;;;;;;;12.97;4.67;;;10.80;99.90;;;;;;4193399;28;20094;-65
2023/09/07 03:28:39;;;;;;;10.93;4.43;;;10.80;99.90;;;;;;4193347;28;20094;-64
2023/09/07 03:30:40;;;;;;;10.27;5.10;;;10.90;99.90;;;;;;4193440;28;20074;-66
2023/09/07 03:32:41;;;;;;;8.07;4.10;;;10.90;99.90;;;;;;4193260;28;20484;-65
2023/09/07 03:34:42;;;;;;;13.93;4.73;;;11.00;99.90;;;;;;4192914;28;20036;-66
2023/09/07 03:36:44;;;;;;;7.87;4.27;;;11.00;99.90;;;;;;4194958;28;20024;-64
2023/09/07 03:38:45;;;;;;;11.30;4.70;;;11.10;99.90;;;;;;4193409;28;20040;-64
2023/09/07 03:40:46;;;;;;;6.57;4.20;;;11.10;99.90;;;;;;4176460;28;20071;-65
2023/09/07 03:42:47;;;;;;;6.57;4.10;;;11.10;99.90;;;;;;4192837;28;20025;-65
2023/09/07 03:44:48;;;;;;;10.73;4.50;;;11.10;99.90;;;;;;4193585;28;20033;-64
2023/09/07 03:46:49;;;;;;;12.60;5.33;;;11.00;99.90;;;;;;4192640;28;20078;-65
2023/09/07 03:48:50;;;;;;;8.07;4.13;;;10.90;99.90;;;;;;4193539;28;20558;-64
2023/09/07 03:50:51;;;;;;;9.77;4.37;;;10.90;99.90;;;;;;4193477;28;20104;-65
2023/09/07 03:52:52;;;;;;;11.80;4.20;;;11.00;99.90;;;;;;4195044;28;20078;-65
2023/09/07 03:54:55;;;;;;;4.30;3.77;;;11.00;99.90;;;;;;4193333;28;20040;-64
2023/09/07 03:56:56;;;;;;;8.07;4.00;;;11.00;99.90;;;;;;4193237;28;20049;-65
2023/09/07 03:58:57;;;;;;;8.40;4.47;;;11.00;99.90;;;;;;4193047;28;20036;-65
2023/09/07 04:00:59;;;;;;;7.50;3.60;;;11.00;99.90;;;;;;4193008;28;20025;-65
2023/09/07 04:03:00;;;;;;;7.63;4.00;;;11.00;99.90;;;;;;4191884;28;20044;-68
2023/09/07 04:05:04;;;;;;;9.50;4.90;;;11.00;99.90;;;;;;4192315;28;20123;-63
2023/09/07 04:07:06;;;;;;;5.37;4.10;;;10.90;99.90;;;;;;4187029;28;20032;-64
2023/09/07 04:09:07;;;;;;;7.93;3.73;;;11.00;99.90;;;;;;4191335;28;20428;-64
2023/09/07 04:11:08;;;;;;;10.00;3.67;;;11.00;99.90;;;;;;4193491;28;20101;-65
2023/09/07 04:13:09;;;;;;;6.83;4.20;;;11.30;99.90;;;;;;4191599;28;20048;-65
2023/09/07 04:15:10;;;;;;;9.40;4.57;;;11.50;99.90;;;;;;4192675;28;20032;-61
2023/09/07 04:17:12;;;;;;;8.77;4.10;;;11.80;99.90;;;;;;4192597;28;20491;-64
2023/09/07 04:19:13;;;;;;;7.27;3.77;;;12.10;99.90;;;;;;4192775;28;20059;-64
2023/09/07 04:21:14;;;;;;;5.00;3.70;;;12.30;99.90;;;;;;4192096;28;20105;-63
2023/09/07 04:23:15;;;;;;;6.20;4.13;;;12.70;99.90;;;;;;4192731;28;20037;-63
2023/09/07 04:25:16;;;;;;;8.07;3.83;;;13.10;99.90;;;;;;4192802;28;20558;-62
2023/09/07 04:27:17;;;;;;;9.37;4.10;;;13.50;99.90;;;;;;4193312;28;20074;-63
2023/09/07 04:29:19;;;;;;;8.27;4.10;;;13.80;99.90;;;;;;4193099;28;20142;-63
2023/09/07 04:31:21;;;;;;;8.00;4.03;;;14.20;99.90;;;;;;4192034;28;20110;-63
2023/09/07 04:33:22;;;;;;;19.97;7.17;;;14.60;99.90;;;;;;4193116;28;20048;-60
2023/09/07 04:35:29;;;;;;;11.97;4.53;;;14.70;99.90;;;;;;4192580;28;20408;-64
2023/09/07 04:37:30;;;;;;;9.33;5.30;;;14.60;99.90;;;;;;4194116;28;20098;-65
2023/09/07 04:39:32;;;;;;;12.43;4.47;;;14.50;99.90;;;;;;4196169;28;20094;-64
2023/09/07 04:41:33;;;;;;;6.70;4.45;;;14.50;99.90;;;;;;4196727;28;20025;-62
2023/09/07 04:43:34;;;;;;;16.52;4.53;;;14.50;99.90;;;;;;4195363;28;20062;-63
2023/09/07 04:45:35;;;;;;;15.48;4.25;;;14.60;99.90;;;;;;4196281;28;20082;-64
2023/09/07 04:47:36;;;;;;;9.45;4.90;;;14.90;99.90;;;;;;4196167;28;20028;-64
2023/09/07 04:49:37;;;;;;;11.50;5.13;;;15.40;99.90;;;;;;4196814;28;20040;-62
2023/09/07 04:51:39;;;;;;;19.50;5.20;;;16.10;99.90;;;;;;4195426;28;20041;-64
2023/09/07 04:53:40;;;;;;;18.58;5.38;;;16.80;99.90;;;;;;4197616;28;20020;-64
2023/09/07 04:55:41;;;;;;;13.52;4.78;;;17.40;99.90;;;;;;4196040;28;20082;-62
2023/09/07 04:57:42;;;;;;;22.65;7.00;;;17.60;99.90;;;;;;4196752;28;20025;-64
2023/09/07 04:59:43;;;;;;;15.15;4.47;;;17.70;99.90;;;;;;4196276;28;20044;-63
2023/09/07 05:01:44;;;;;;;16.80;4.82;;;17.80;99.90;;;;;;4190936;28;20107;-64
2023/09/07 05:03:45;;;;;;;11.13;4.95;;;18.10;99.90;;;;;;4194095;28;20052;-64
2023/09/07 05:05:52;;;;;;;9.23;4.38;;;18.40;99.90;;;;;;4193030;28;20480;-61
2023/09/07 05:07:54;;;;;;;7.90;4.10;;;18.80;99.90;;;;;;4196749;28;20057;-64
2023/09/07 05:09:55;;;;;;;10.75;3.60;;;19.20;99.90;;;;;;4195784;28;20032;-63
2023/09/07 05:11:56;;;;;;;15.63;4.38;;;19.50;99.90;;;;;;4196648;28;20085;-63
2023/09/07 05:13:57;;;;;;;7.75;4.20;;;19.80;99.90;;;;;;4195401;28;20086;-63
2023/09/07 05:16:04;;;;;;;15.13;4.78;;;20.00;99.90;;;;;;4195467;28;20086;-62
2023/09/07 05:18:05;;;;;;;18.95;5.60;;;20.30;99.90;;;;;;4195459;28;20672;-62
2023/09/07 05:20:09;;;;;;;15.20;4.55;;;20.50;99.90;;;;;;4192476;28;20063;-65
2023/09/07 05:22:11;;;;;;;13.80;4.43;;;20.30;99.90;;;;;;4194562;28;20067;-64
2023/09/07 05:24:14;;;;;;;12.80;4.22;;;20.00;99.90;;;;;;4196546;28;20029;-63
2023/09/07 05:26:22;;;;;;;12.90;4.57;;;19.90;99.90;;;;;;4195124;28;20044;-63
2023/09/07 05:28:23;;;;;;;14.70;4.47;;;19.90;99.90;;;;;;4189785;28;20056;-65
2023/09/07 05:30:24;;;;;;;18.90;5.43;;;20.00;99.90;;;;;;4191028;28;20557;-63
2023/09/07 05:32:26;;;;;;;16.80;5.80;;;20.40;99.90;;;;;;4190449;28;20044;-62
2023/09/07 05:34:27;;;;;;;20.65;6.47;;;20.50;99.90;;;;;;4190185;28;20052;-60
2023/09/07 05:36:29;;;;;;;15.77;5.80;;;20.50;99.90;;;;;;4190824;28;20082;-63
2023/09/07 05:38:30;;;;;;;19.23;5.70;;;20.20;99.90;;;;;;4190145;28;20037;-63
2023/09/07 05:40:39;;;;;;;25.55;6.28;;;20.50;99.90;;;;;;4172049;28;20036;-64
2023/09/07 05:42:40;;;;;;;26.95;7.30;;;20.90;99.90;;;;;;4190459;28;20040;-63
2023/09/07 05:44:41;;;;;;;29.98;6.65;;;21.40;99.90;;;;;;4190630;28;20021;-64
2023/09/07 05:46:42;;;;;;;28.30;6.22;;;22.10;99.90;;;;;;4192000;28;20020;-62
2023/09/07 05:48:44;;;;;;;32.10;6.32;;;22.70;99.90;;;;;;4192588;28;20102;-65
2023/09/07 05:50:45;;;;;;;25.70;7.05;;;22.90;99.90;;;;;;4194609;28;20082;-63
2023/09/07 05:52:46;;;;;;;37.10;7.53;;;22.90;99.90;;;;;;4171166;28;20114;-64
2023/09/07 05:54:47;;;;;;;21.15;6.57;;;22.90;99.80;;;;;;4195220;28;20110;-64
2023/09/07 05:56:48;;;;;;;29.45;7.43;;;22.80;99.50;;;;;;4194738;28;20036;-65
2023/09/07 05:58:49;;;;;;;29.88;7.68;;;22.80;99.60;;;;;;4193573;28;20106;-62
2023/09/07 06:00:51;;;;;;;33.92;8.20;;;23.20;99.30;;;;;;4195290;28;20056;-63
2023/09/07 06:02:52;;;;;;;25.40;6.57;;;23.20;98.80;;;;;;4194790;28;20033;-63
2023/09/07 06:04:53;;;;;;;34.67;7.70;;;22.70;98.90;;;;;;4187712;28;20472;-62
2023/09/07 06:06:54;;;;;;;24.98;6.65;;;22.60;99.10;;;;;;4194732;28;20083;-62
2023/09/07 06:08:55;;;;;;;24.13;6.22;;;22.80;99.10;;;;;;4195086;28;20502;-61
2023/09/07 06:10:56;;;;;;;23.15;6.03;;;22.80;99.00;;;;;;4195579;28;20058;-63
2023/09/07 06:12:58;;;;;;;16.23;6.32;;;23.10;98.90;;;;;;4194453;28;20068;-62
2023/09/07 06:15:03;;;;;;;26.45;6.32;;;23.20;98.70;;;;;;4194342;28;20029;-61
2023/09/07 06:17:04;;;;;;;19.27;5.88;;;23.10;98.50;;;;;;4195739;28;20044;-61
2023/09/07 06:19:06;;;;;;;18.63;5.88;;;23.20;98.60;;;;;;4194602;28;20098;-62
2023/09/07 06:21:07;;;;;;;13.48;5.68;;;23.30;98.60;;;;;;4195159;28;20090;-62
2023/09/07 06:23:08;;;;;;;15.48;5.63;;;23.40;98.40;;;;;;4194053;28;20074;-62
2023/09/07 06:25:09;;;;;;;14.95;5.40;;;23.70;98.20;;;;;;4195297;28;20029;-62
2023/09/07 06:27:10;;;;;;;15.35;5.47;;;23.90;97.90;;;;;;4193896;28;20032;-62
2023/09/07 06:29:12;;;;;;;16.23;6.15;;;23.40;97.80;;;;;;4195503;28;20086;-60
2023/09/07 06:31:13;;;;;;;18.65;6.25;;;22.50;98.40;;;;;;4194594;28;20131;-63
2023/09/07 06:33:14;;;;;;;14.23;6.53;;;21.60;99.40;;;;;;4196111;28;20041;-63
2023/09/07 06:35:15;;;;;;;12.63;6.72;;;21.10;99.90;;;;;;4193584;28;20017;-61
2023/09/07 06:37:17;;;;;;;11.68;5.70;;;20.80;99.90;;;;;;4195324;28;20036;-62
2023/09/07 06:39:18;;;;;;;13.32;6.20;;;20.80;99.90;;;;;;4193611;28;20479;-64
2023/09/07 06:41:19;;;;;;;14.02;6.28;;;21.00;99.90;;;;;;4194237;28;20169;-61
2023/09/07 06:43:21;;;;;;;20.42;6.15;;;21.00;99.90;;;;;;4193180;28;20791;-64
2023/09/07 06:45:23;;;;;;;19.70;6.90;;;20.90;99.90;;;;;;4192145;28;20098;-64
2023/09/07 06:47:24;;;;;;;22.35;7.10;;;20.70;99.90;;;;;;4194678;28;20040;-63
2023/09/07 06:49:25;;;;;;;15.10;6.18;;;20.40;99.90;;;;;;4194127;28;20381;-63
2023/09/07 06:51:26;;;;;;;16.65;6.57;;;20.50;99.90;;;;;;4195373;28;20024;-62
2023/09/07 06:53:28;;;;;;;15.50;5.90;;;20.60;99.90;;;;;;4194315;28;20439;-62
2023/09/07 06:55:29;;;;;;;10.07;5.95;;;20.30;99.90;;;;;;4193567;28;20093;-64
2023/09/07 06:57:30;;;;;;;10.50;6.28;;;19.80;99.90;;;;;;4191821;28;20488;-61
2023/09/07 06:59:31;;;;;;;11.60;6.78;;;19.50;99.90;;;;;;4195448;28;20070;-62
2023/09/07 07:01:32;;;;;;;16.25;6.35;;;19.80;99.90;;;;;;4192521;28;20484;-63
2023/09/07 07:03:34;;;;;;;12.55;6.10;;;20.10;99.90;;;;;;4194665;28;20048;-64
2023/09/07 07:05:35;;;;;;;13.00;6.60;;;19.90;99.90;;;;;;4193730;28;20423;-63
2023/09/07 07:07:36;;;;;;;15.18;6.70;;;20.50;99.90;;;;;;4193759;28;20106;-65
2023/09/07 07:09:37;;;;;;;10.88;6.57;;;20.60;99.90;;;;;;4194213;28;20554;-64
2023/09/07 07:11:39;;;;;;;9.88;6.20;;;20.50;99.90;;;;;;4194021;28;20071;-64
2023/09/07 07:13:40;;;;;;;13.15;6.68;;;20.40;99.90;;;;;;4192959;28;20033;-64
2023/09/07 07:15:42;;;;;;;21.88;7.13;;;20.50;99.90;;;;;;4193460;28;20028;-64
2023/09/07 07:17:43;;;;;;;16.60;8.98;;;20.50;99.90;;;;;;4194186;28;20020;-64
2023/09/07 07:19:44;;;;;;;14.23;7.53;;;20.40;99.90;;;;;;4192661;28;20041;-62
2023/09/07 07:21:45;;;;;;;19.45;7.57;;;20.20;99.90;;;;;;4193648;28;20090;-63
2023/09/07 07:23:46;;;;;;;11.25;6.40;;;20.20;99.90;;;;;;4193803;28;20024;-62
2023/09/07 07:25:47;;;;;;;13.98;6.72;;;20.10;99.90;;;;;;4193948;28;20803;-62
2023/09/07 07:27:48;;;;;;;12.95;7.10;;;20.10;99.90;;;;;;4192324;28;20044;-62
2023/09/07 07:29:51;;;;;;;23.85;7.03;;;20.00;99.90;;;;;;4194105;28;20554;-63
2023/09/07 07:31:52;;;;;;;11.68;6.82;;;20.00;99.90;;;;;;4192346;28;20112;-61
2023/09/07 07:33:53;;;;;;;10.32;6.35;;;20.10;99.90;;;;;;4193933;28;20037;-63
2023/09/07 07:35:54;;;;;;;12.70;7.10;;;20.00;99.90;;;;;;4192349;28;20098;-63
2023/09/07 07:37:55;;;;;;;11.73;5.97;;;20.10;99.90;;;;;;4194020;28;20078;-65
2023/09/07 07:39:56;;;;;;;9.55;6.18;;;20.20;99.90;;;;;;4192071;28;20078;-64
2023/09/07 07:41:57;;;;;;;10.95;7.10;;;20.40;99.90;;;;;;4193454;28;20357;-65
2023/09/07 07:43:58;;;;;;;9.88;6.32;;;20.40;99.90;;;;;;4193155;28;20078;-63
2023/09/07 07:45:59;;;;;;;8.45;6.07;;;20.30;99.90;;;;;;4193224;28;20083;-63
2023/09/07 07:48:01;;;;;;;9.48;5.95;;;20.20;99.90;;;;;;4194239;28;20024;-62
2023/09/07 07:50:03;;;;;;;8.75;5.25;;;20.20;99.90;;;;;;4191884;28;20048;-61
2023/09/07 07:52:04;;;;;;;10.30;5.60;;;20.30;99.90;;;;;;4193936;28;20048;-63
2023/09/07 07:54:05;;;;;;;8.45;5.40;;;20.40;99.90;;;;;;4192631;28;20113;-62
2023/09/07 07:56:15;;;;;;;6.72;5.43;;;20.70;99.90;;;;;;4194791;28;20570;-63
2023/09/07 07:58:16;;;;;;;6.57;4.63;;;20.70;99.90;;;;;;4192736;28;20421;-61
2023/09/07 08:00:17;;;;;;;9.10;5.20;;;20.80;99.90;;;;;;4193754;28;20036;-65
2023/09/07 08:02:18;;;;;;;13.75;4.82;;;20.80;99.90;;;;;;4192340;28;20048;-60
2023/09/07 08:04:19;;;;;;;10.50;4.45;;;21.00;99.90;;;;;;4192569;28;20044;-64
2023/09/07 08:06:20;;;;;;;7.72;3.58;;;21.20;99.90;;;;;;4192038;28;20124;-61
2023/09/07 08:08:22;;;;;;;5.20;3.63;;;21.30;99.90;;;;;;4193778;28;20078;-61
2023/09/07 08:10:23;;;;;;;8.30;3.75;;;21.40;99.90;;;;;;4192802;28;20386;-62
2023/09/07 08:12:24;;;;;;;5.40;3.00;;;21.40;99.90;;;;;;4192475;28;20550;-65
2023/09/07 08:14:25;;;;;;;5.85;3.20;;;21.40;99.90;;;;;;4193620;28;20024;-65
2023/09/07 08:16:26;;;;;;;7.55;2.63;;;21.50;99.90;;;;;;4192617;28;20032;-64
2023/09/07 08:18:28;;;;;;;3.65;2.30;;;21.50;99.90;;;;;;4193198;28;20077;-65
2023/09/07 08:20:31;;;;;;;10.18;3.13;;;21.70;99.90;;;;;;4191895;28;20033;-66
2023/09/07 08:22:35;;;;;;;4.60;2.50;;;21.90;99.20;;;;;;4193937;28;20065;-63
2023/09/07 08:24:36;;;;;;;3.20;2.40;;;22.10;98.80;;;;;;4193081;28;20017;-62
2023/09/07 08:26:38;;;;;;;3.70;2.20;;;22.10;98.20;;;;;;4192865;28;20044;-64
2023/09/07 08:28:39;;;;;;;3.83;2.35;;;22.30;98.00;;;;;;4192196;28;20066;-64
2023/09/07 08:30:40;;;;;;;6.45;2.10;;;22.60;97.70;;;;;;4193311;28;20052;-64
2023/09/07 08:32:41;;;;;;;5.20;2.38;;;22.60;97.30;;;;;;4192252;28;20113;-63
2023/09/07 08:34:42;;;;;;;3.55;2.58;;;22.60;96.50;;;;;;4192800;28;20029;-62
2023/09/07 08:36:43;;;;;;;5.25;2.50;;;22.50;96.60;;;;;;4191764;28;20094;-63
2023/09/07 08:38:45;;;;;;;3.38;2.33;;;22.50;96.70;;;;;;4192136;28;20036;-65
2023/09/07 08:40:46;;;;;;;3.03;2.13;;;22.80;96.30;;;;;;4192739;28;20094;-64
2023/09/07 08:42:47;;;;;;;5.13;2.55;;;23.00;96.20;;;;;;4193298;28;20086;-65
2023/09/07 08:44:51;;;;;;;3.17;2.15;;;23.10;95.90;;;;;;4191335;28;20110;-63
2023/09/07 08:46:53;;;;;;;8.15;2.25;;;23.20;95.70;;;;;;4192214;28;20494;-63
2023/09/07 08:48:55;;;;;;;3.75;2.35;;;23.20;95.60;;;;;;4192093;28;20048;-63
2023/09/07 08:50:56;;;;;;;4.63;2.50;;;23.30;95.50;;;;;;4191042;28;20049;-62
2023/09/07 08:52:59;;;;;;;5.93;2.40;;;23.30;95.40;;;;;;4192233;28;20078;-61
2023/09/07 08:55:04;;;;;;;2.63;2.08;;;23.30;95.00;;;;;;4192015;28;20358;-62
2023/09/07 08:57:06;;;;;;;3.08;2.33;;;23.20;95.00;;;;;;4193059;28;20041;-60
2023/09/07 08:59:07;;;;;;;4.57;2.97;;;23.30;95.10;;;;;;4192701;28;20534;-62
2023/09/07 09:01:09;;;;;;;9.75;3.45;;;23.40;95.10;;;;;;4193622;28;20028;-61
2023/09/07 09:03:10;;;;;;;3.53;2.30;;;23.60;95.00;;;;;;4191399;28;20078;-62
2023/09/07 09:05:14;;;;;;;3.15;2.40;;;23.70;94.60;;;;;;4192816;28;20078;-61
2023/09/07 09:07:15;;;;;;;2.33;1.92;;;23.60;94.50;;;;;;4191118;28;20037;-63
2023/09/07 09:09:24;;;;;;;3.80;2.25;;;23.50;94.30;;;;;;4192984;28;20036;-63
2023/09/07 09:11:27;;;;;;;2.70;2.20;;;23.50;93.80;;;;;;4191388;28;20550;-63
2023/09/07 09:13:32;;;;;;;3.88;3.03;;;23.50;93.90;;;;;;4192696;28;20395;-62
2023/09/07 09:15:33;;;;;;;6.15;2.70;;;23.50;93.90;;;;;;4192046;28;20052;-61
2023/09/07 09:17:34;;;;;;;4.43;2.70;;;23.50;93.70;;;;;;4190883;28;20575;-61
2023/09/07 09:19:37;;;;;;;3.92;2.30;;;23.60;93.50;;;;;;4191473;28;20048;-62
2023/09/07 09:21:38;;;;;;;3.17;1.98;;;23.60;93.00;;;;;;4192662;28;20516;-61
2023/09/07 09:23:39;;;;;;;2.63;2.33;;;23.60;92.80;;;;;;4193503;28;20040;-62
2023/09/07 09:25:43;;;;;;;4.32;2.63;;;23.80;93.00;;;;;;4195402;28;20040;-62
2023/09/07 09:27:44;;;;;;;4.45;2.95;;;23.90;92.90;;;;;;4196458;28;20364;-61
2023/09/07 09:29:45;;;;;;;5.03;3.03;;;23.80;92.70;;;;;;4194628;28;20060;-62
2023/09/07 09:31:47;;;;;;;5.15;2.88;;;23.70;92.70;;;;;;4196396;28;20109;-62
2023/09/07 09:33:52;;;;;;;4.53;2.53;;;23.80;92.60;;;;;;4194085;28;20480;-64
2023/09/07 09:35:54;;;;;;;4.15;2.33;;;23.90;92.80;;;;;;4195401;28;20037;-64
2023/09/07 09:37:55;;;;;;;3.08;2.80;;;23.90;92.50;;;;;;4194699;28;20117;-64
2023/09/07 09:39:59;;;;;;;3.70;2.22;;;24.00;92.50;;;;;;4195910;28;20086;-63
2023/09/07 09:42:00;;;;;;;3.40;2.00;;;24.20;92.10;;;;;;4195094;28;20415;-62
2023/09/07 09:44:03;;;;;;;5.20;2.85;;;24.30;91.70;;;;;;4195983;28;20123;-62
2023/09/07 09:46:07;;;;;;;3.90;2.63;;;24.50;91.60;;;;;;4194016;28;20094;-62
2023/09/07 09:48:09;;;;;;;8.52;2.80;;;24.10;91.20;;;;;;4196296;28;20098;-65
2023/09/07 09:50:11;;;;;;;4.70;3.10;;;23.90;91.50;;;;;;4194095;28;20044;-61
2023/09/07 09:52:13;;;;;;;4.50;2.67;;;24.00;91.80;;;;;;4195497;28;20093;-63
2023/09/07 09:54:19;;;;;;;5.05;2.00;;;24.20;91.60;;;;;;4194413;28;20041;-62
2023/09/07 09:56:20;;;;;;;3.55;2.40;;;24.40;91.30;;;;;;4195334;28;20048;-63
2023/09/07 09:58:22;;;;;;;3.45;2.40;;;24.60;91.10;;;;;;4194734;28;20105;-65
2023/09/07 10:00:26;;;;;;;4.25;2.22;;;24.60;90.70;;;;;;4195637;28;20489;-64
2023/09/07 10:02:27;;;;;;;3.40;2.30;;;24.60;90.60;;;;;;4195773;28;20444;-65
2023/09/07 10:04:29;;;;;;;3.85;2.35;;;24.80;90.50;;;;;;4195012;28;20101;-63
2023/09/07 10:06:30;;;;;;;2.75;2.42;;;24.70;90.60;;;;;;4194487;28;20399;-62
2023/09/07 10:08:32;;;;;;;5.55;2.83;;;24.60;90.50;;;;;;4193415;28;20090;-63
2023/09/07 10:10:38;;;;;;;5.30;2.63;;;24.30;90.30;;;;;;4175597;28;20049;-61
2023/09/07 10:12:51;;;;;;;9.18;2.50;;;24.10;90.50;;;;;;4193880;28;20044;-63
2023/09/07 10:14:55;;;;;;;3.75;2.58;;;24.10;90.60;;;;;;4195577;28;20029;-62
2023/09/07 10:17:03;;;;;;;5.63;2.45;;;24.10;90.70;;;;;;4194025;28;20423;-62
2023/09/07 10:19:14;;;;;;;4.75;2.47;;;24.00;90.40;;;;;;4194572;28;20078;-62
2023/09/07 10:21:15;;;;;;;2.78;2.33;;;23.90;90.00;;;;;;4193751;28;20468;-63
2023/09/07 10:23:16;;;;;;;3.67;2.40;;;23.80;90.50;;;;;;4194951;28;20040;-62
2023/09/07 10:25:22;;;;;;;3.35;2.22;;;23.80;90.50;;;;;;4195286;28;20083;-62
2023/09/07 10:27:23;;;;;;;3.50;2.40;;;23.70;90.30;;;;;;4195041;28;20033;-63
2023/09/07 10:29:25;;;;;;;5.22;2.50;;;23.70;90.60;;;;;;4187729;28;20037;-64
2023/09/07 10:31:27;;;;;;;4.38;2.72;;;23.80;90.70;;;;;;4193771;28;20431;-63